sensor_id;sensor_type;location;lat;lon;timestamp;P1;durP1;ratioP1;P2;durP2;ratioP2
59306;SDS011;47983;53.016;-2.260;2023-06-14T00:01:41;8.93;;;4.25;;
59306;SDS011;47983;53.016;-2.260;2023-06-14T00:04:13;8.43;;;4.00;;
59306;SDS011;47983;53.016;-2.260;2023-06-14T00:06:44;6.47;;;3.88;;
59306;SDS011;47983;53.016;-2.260;2023-06-14T00:09:12;5.30;;;3.60;;
59306;SDS011;47983;53.016;-2.260;2023-06-14T00:11:40;13.70;;;3.45;;
59306;SDS011;47983;53.016;-2.260;2023-06-14T00:14:09;7.57;;;4.07;;
59306;SDS011;47983;53.016;-2.260;2023-06-14T00:16:37;6.63;;;3.50;;
59306;SDS011;47983;53.016;-2.260;2023-06-14T00:19:05;9.77;;;4.22;;
59306;SDS011;47983;53.016;-2.260;2023-06-14T00:21:33;8.57;;;3.60;;
59306;SDS011;47983;53.016;-2.260;2023-06-14T00:24:02;9.88;;;3.42;;
59306;SDS011;47983;53.016;-2.260;2023-06-14T00:26:29;10.13;;;3.40;;
59306;SDS011;47983;53.016;-2.260;2023-06-14T00:28:57;4.60;;;3.05;;
59306;SDS011;47983;53.016;-2.260;2023-06-14T00:31:26;4.68;;;3.35;;
59306;SDS011;47983;53.016;-2.260;2023-06-14T00:33:54;5.88;;;3.40;;
59306;SDS011;47983;53.016;-2.260;2023-06-14T00:36:22;6.18;;;3.63;;
59306;SDS011;47983;53.016;-2.260;2023-06-14T00:38:49;7.80;;;3.58;;
59306;SDS011;47983;53.016;-2.260;2023-06-14T00:41:17;5.97;;;2.97;;
59306;SDS011;47983;53.016;-2.260;2023-06-14T00:43:45;8.13;;;3.10;;
59306;SDS011;47983;53.016;-2.260;2023-06-14T00:46:14;13.55;;;3.20;;
59306;SDS011;47983;53.016;-2.260;2023-06-14T00:48:42;6.40;;;2.78;;
59306;SDS011;47983;53.016;-2.260;2023-06-14T00:51:10;6.05;;;2.45;;
59306;SDS011;47983;53.016;-2.260;2023-06-14T00:53:37;4.88;;;2.40;;
59306;SDS011;47983;53.016;-2.260;2023-06-14T00:56:06;7.78;;;2.30;;
59306;SDS011;47983;53.016;-2.260;2023-06-14T00:58:34;5.05;;;2.20;;
59306;SDS011;47983;53.016;-2.260;2023-06-14T01:01:02;3.72;;;2.33;;
59306;SDS011;47983;53.016;-2.260;2023-06-14T01:03:33;7.30;;;2.53;;
59306;SDS011;47983;53.016;-2.260;2023-06-14T01:06:19;4.30;;;2.30;;
59306;SDS011;47983;53.016;-2.260;2023-06-14T01:11:38;9.90;;;2.05;;
59306;SDS011;47983;53.016;-2.260;2023-06-14T01:14:15;4.25;;;2.13;;
59306;SDS011;47983;53.016;-2.260;2023-06-14T01:16:45;6.60;;;2.45;;
59306;SDS011;47983;53.016;-2.260;2023-06-14T01:19:14;5.55;;;1.92;;
59306;SDS011;47983;53.016;-2.260;2023-06-14T01:21:43;4.40;;;1.75;;
59306;SDS011;47983;53.016;-2.260;2023-06-14T01:24:10;4.40;;;2.13;;
59306;SDS011;47983;53.016;-2.260;2023-06-14T01:26:38;5.90;;;1.95;;
59306;SDS011;47983;53.016;-2.260;2023-06-14T01:29:13;6.60;;;2.50;;
59306;SDS011;47983;53.016;-2.260;2023-06-14T01:31:46;6.22;;;2.25;;
59306;SDS011;47983;53.016;-2.260;2023-06-14T01:34:14;5.90;;;2.47;;
59306;SDS011;47983;53.016;-2.260;2023-06-14T01:36:43;3.38;;;2.00;;
59306;SDS011;47983;53.016;-2.260;2023-06-14T01:39:14;3.72;;;1.83;;
59306;SDS011;47983;53.016;-2.260;2023-06-14T01:41:45;7.60;;;3.20;;
59306;SDS011;47983;53.016;-2.260;2023-06-14T01:44:16;4.38;;;1.77;;
59306;SDS011;47983;53.016;-2.260;2023-06-14T01:46:45;8.02;;;2.75;;
59306;SDS011;47983;53.016;-2.260;2023-06-14T01:49:14;7.70;;;2.17;;
59306;SDS011;47983;53.016;-2.260;2023-06-14T01:51:41;8.35;;;1.92;;
59306;SDS011;47983;53.016;-2.260;2023-06-14T01:54:09;5.00;;;1.95;;
59306;SDS011;47983;53.016;-2.260;2023-06-14T01:56:38;5.07;;;1.80;;
59306;SDS011;47983;53.016;-2.260;2023-06-14T01:59:05;5.72;;;1.92;;
59306;SDS011;47983;53.016;-2.260;2023-06-14T02:01:34;4.95;;;1.77;;
59306;SDS011;47983;53.016;-2.260;2023-06-14T02:04:03;3.50;;;1.80;;
59306;SDS011;47983;53.016;-2.260;2023-06-14T02:06:31;3.53;;;1.98;;
59306;SDS011;47983;53.016;-2.260;2023-06-14T02:09:00;3.53;;;1.60;;
59306;SDS011;47983;53.016;-2.260;2023-06-14T02:11:29;6.05;;;2.15;;
59306;SDS011;47983;53.016;-2.260;2023-06-14T02:13:57;10.10;;;2.03;;
59306;SDS011;47983;53.016;-2.260;2023-06-14T02:16:27;7.68;;;2.30;;
59306;SDS011;47983;53.016;-2.260;2023-06-14T02:18:56;4.75;;;1.80;;
59306;SDS011;47983;53.016;-2.260;2023-06-14T02:21:24;4.97;;;2.08;;
59306;SDS011;47983;53.016;-2.260;2023-06-14T02:23:52;7.35;;;2.72;;
59306;SDS011;47983;53.016;-2.260;2023-06-14T02:26:20;7.38;;;2.60;;
59306;SDS011;47983;53.016;-2.260;2023-06-14T02:28:48;5.00;;;2.90;;
59306;SDS011;47983;53.016;-2.260;2023-06-14T02:31:15;4.07;;;2.33;;
59306;SDS011;47983;53.016;-2.260;2023-06-14T02:33:43;4.88;;;2.08;;
59306;SDS011;47983;53.016;-2.260;2023-06-14T02:36:11;6.13;;;2.13;;
59306;SDS011;47983;53.016;-2.260;2023-06-14T02:38:39;6.53;;;2.70;;
59306;SDS011;47983;53.016;-2.260;2023-06-14T02:41:08;3.60;;;2.35;;
59306;SDS011;47983;53.016;-2.260;2023-06-14T02:43:36;4.20;;;2.05;;
59306;SDS011;47983;53.016;-2.260;2023-06-14T02:46:06;8.40;;;2.45;;
59306;SDS011;47983;53.016;-2.260;2023-06-14T02:48:34;5.43;;;2.47;;
59306;SDS011;47983;53.016;-2.260;2023-06-14T02:51:01;6.88;;;2.22;;
59306;SDS011;47983;53.016;-2.260;2023-06-14T02:53:29;5.22;;;2.25;;
59306;SDS011;47983;53.016;-2.260;2023-06-14T02:55:57;4.60;;;2.33;;
59306;SDS011;47983;53.016;-2.260;2023-06-14T02:58:25;7.28;;;2.42;;
59306;SDS011;47983;53.016;-2.260;2023-06-14T03:00:53;5.43;;;2.05;;
59306;SDS011;47983;53.016;-2.260;2023-06-14T03:03:22;6.93;;;3.08;;
59306;SDS011;47983;53.016;-2.260;2023-06-14T03:05:54;4.70;;;2.42;;
59306;SDS011;47983;53.016;-2.260;2023-06-14T03:08:26;7.70;;;2.58;;
59306;SDS011;47983;53.016;-2.260;2023-06-14T03:11:00;6.10;;;2.53;;
59306;SDS011;47983;53.016;-2.260;2023-06-14T03:13:29;6.28;;;2.97;;
59306;SDS011;47983;53.016;-2.260;2023-06-14T03:15:59;6.68;;;3.15;;
59306;SDS011;47983;53.016;-2.260;2023-06-14T03:18:32;4.55;;;2.25;;
59306;SDS011;47983;53.016;-2.260;2023-06-14T03:21:04;4.20;;;2.53;;
59306;SDS011;47983;53.016;-2.260;2023-06-14T03:23:32;4.82;;;2.10;;
59306;SDS011;47983;53.016;-2.260;2023-06-14T03:26:02;5.75;;;2.65;;
59306;SDS011;47983;53.016;-2.260;2023-06-14T03:28:30;9.20;;;2.70;;
59306;SDS011;47983;53.016;-2.260;2023-06-14T03:30:58;8.93;;;2.78;;
59306;SDS011;47983;53.016;-2.260;2023-06-14T03:33:30;9.10;;;2.60;;
59306;SDS011;47983;53.016;-2.260;2023-06-14T03:35:58;4.57;;;2.40;;
59306;SDS011;47983;53.016;-2.260;2023-06-14T03:38:27;6.07;;;2.75;;
59306;SDS011;47983;53.016;-2.260;2023-06-14T03:40:55;6.80;;;2.85;;
59306;SDS011;47983;53.016;-2.260;2023-06-14T03:43:23;4.15;;;2.67;;
59306;SDS011;47983;53.016;-2.260;2023-06-14T03:45:51;9.90;;;2.55;;
59306;SDS011;47983;53.016;-2.260;2023-06-14T03:48:20;7.28;;;2.63;;
59306;SDS011;47983;53.016;-2.260;2023-06-14T03:50:48;5.95;;;3.33;;
59306;SDS011;47983;53.016;-2.260;2023-06-14T03:53:17;10.15;;;3.47;;
59306;SDS011;47983;53.016;-2.260;2023-06-14T03:55:49;6.93;;;3.13;;
59306;SDS011;47983;53.016;-2.260;2023-06-14T03:58:28;8.48;;;3.80;;
59306;SDS011;47983;53.016;-2.260;2023-06-14T04:00:56;7.32;;;3.40;;
59306;SDS011;47983;53.016;-2.260;2023-06-14T04:03:24;7.78;;;2.85;;
59306;SDS011;47983;53.016;-2.260;2023-06-14T04:05:57;8.07;;;2.85;;
59306;SDS011;47983;53.016;-2.260;2023-06-14T04:08:27;7.53;;;3.17;;
59306;SDS011;47983;53.016;-2.260;2023-06-14T04:10:54;12.60;;;2.85;;
59306;SDS011;47983;53.016;-2.260;2023-06-14T04:13:22;5.47;;;2.85;;
59306;SDS011;47983;53.016;-2.260;2023-06-14T04:15:50;4.55;;;2.50;;
59306;SDS011;47983;53.016;-2.260;2023-06-14T04:18:24;4.82;;;2.78;;
59306;SDS011;47983;53.016;-2.260;2023-06-14T04:20:53;9.10;;;3.55;;
59306;SDS011;47983;53.016;-2.260;2023-06-14T04:23:21;6.80;;;2.65;;
59306;SDS011;47983;53.016;-2.260;2023-06-14T04:25:49;4.32;;;2.67;;
59306;SDS011;47983;53.016;-2.260;2023-06-14T04:28:17;8.45;;;2.85;;
59306;SDS011;47983;53.016;-2.260;2023-06-14T04:30:47;5.75;;;2.95;;
59306;SDS011;47983;53.016;-2.260;2023-06-14T04:35:45;4.07;;;2.75;;
59306;SDS011;47983;53.016;-2.260;2023-06-14T04:38:15;7.78;;;3.03;;
59306;SDS011;47983;53.016;-2.260;2023-06-14T04:40:43;3.80;;;2.72;;
59306;SDS011;47983;53.016;-2.260;2023-06-14T04:43:14;7.25;;;3.00;;
59306;SDS011;47983;53.016;-2.260;2023-06-14T04:45:44;12.52;;;3.33;;
59306;SDS011;47983;53.016;-2.260;2023-06-14T04:48:14;8.85;;;2.88;;
59306;SDS011;47983;53.016;-2.260;2023-06-14T04:50:42;7.82;;;3.03;;
59306;SDS011;47983;53.016;-2.260;2023-06-14T04:53:10;10.20;;;3.08;;
59306;SDS011;47983;53.016;-2.260;2023-06-14T04:55:38;6.97;;;2.67;;
59306;SDS011;47983;53.016;-2.260;2023-06-14T04:58:07;14.75;;;3.75;;
59306;SDS011;47983;53.016;-2.260;2023-06-14T05:00:35;5.38;;;2.95;;
59306;SDS011;47983;53.016;-2.260;2023-06-14T05:03:02;6.93;;;3.15;;
59306;SDS011;47983;53.016;-2.260;2023-06-14T05:05:33;6.43;;;3.13;;
59306;SDS011;47983;53.016;-2.260;2023-06-14T05:08:01;5.60;;;2.83;;
59306;SDS011;47983;53.016;-2.260;2023-06-14T05:10:29;7.90;;;3.40;;
59306;SDS011;47983;53.016;-2.260;2023-06-14T05:12:57;6.00;;;3.22;;
59306;SDS011;47983;53.016;-2.260;2023-06-14T05:15:24;5.93;;;3.10;;
59306;SDS011;47983;53.016;-2.260;2023-06-14T05:17:52;5.85;;;3.00;;
59306;SDS011;47983;53.016;-2.260;2023-06-14T05:20:23;8.27;;;2.90;;
59306;SDS011;47983;53.016;-2.260;2023-06-14T05:22:53;7.72;;;3.50;;
59306;SDS011;47983;53.016;-2.260;2023-06-14T05:25:22;6.82;;;3.28;;
59306;SDS011;47983;53.016;-2.260;2023-06-14T05:27:50;5.95;;;3.35;;
59306;SDS011;47983;53.016;-2.260;2023-06-14T05:30:18;8.32;;;3.20;;
59306;SDS011;47983;53.016;-2.260;2023-06-14T05:32:46;5.13;;;3.17;;
59306;SDS011;47983;53.016;-2.260;2023-06-14T05:35:14;9.73;;;3.83;;
59306;SDS011;47983;53.016;-2.260;2023-06-14T05:37:42;10.60;;;4.25;;
59306;SDS011;47983;53.016;-2.260;2023-06-14T05:40:10;8.98;;;3.67;;
59306;SDS011;47983;53.016;-2.260;2023-06-14T05:42:38;8.02;;;3.53;;
59306;SDS011;47983;53.016;-2.260;2023-06-14T05:45:06;5.45;;;2.90;;
59306;SDS011;47983;53.016;-2.260;2023-06-14T05:47:34;9.27;;;4.90;;
59306;SDS011;47983;53.016;-2.260;2023-06-14T05:50:01;5.18;;;2.78;;
59306;SDS011;47983;53.016;-2.260;2023-06-14T05:52:29;7.80;;;2.95;;
59306;SDS011;47983;53.016;-2.260;2023-06-14T05:54:58;7.28;;;3.00;;
59306;SDS011;47983;53.016;-2.260;2023-06-14T05:57:27;8.43;;;2.97;;
59306;SDS011;47983;53.016;-2.260;2023-06-14T05:59:55;5.68;;;3.05;;
59306;SDS011;47983;53.016;-2.260;2023-06-14T06:02:23;5.05;;;2.97;;
59306;SDS011;47983;53.016;-2.260;2023-06-14T06:04:51;6.18;;;2.50;;
59306;SDS011;47983;53.016;-2.260;2023-06-14T06:07:18;6.82;;;3.30;;
59306;SDS011;47983;53.016;-2.260;2023-06-14T06:09:46;4.63;;;2.20;;
59306;SDS011;47983;53.016;-2.260;2023-06-14T06:12:14;8.55;;;2.30;;
59306;SDS011;47983;53.016;-2.260;2023-06-14T06:14:41;9.25;;;2.40;;
59306;SDS011;47983;53.016;-2.260;2023-06-14T06:17:10;7.55;;;2.25;;
59306;SDS011;47983;53.016;-2.260;2023-06-14T06:19:38;5.53;;;2.30;;
59306;SDS011;47983;53.016;-2.260;2023-06-14T06:22:06;11.90;;;2.60;;
59306;SDS011;47983;53.016;-2.260;2023-06-14T06:24:35;5.90;;;2.38;;
59306;SDS011;47983;53.016;-2.260;2023-06-14T06:27:02;8.10;;;2.55;;
59306;SDS011;47983;53.016;-2.260;2023-06-14T06:29:30;3.13;;;2.05;;
59306;SDS011;47983;53.016;-2.260;2023-06-14T06:31:58;7.57;;;2.53;;
59306;SDS011;47983;53.016;-2.260;2023-06-14T06:34:26;11.27;;;2.30;;
59306;SDS011;47983;53.016;-2.260;2023-06-14T06:36:54;8.80;;;2.13;;
59306;SDS011;47983;53.016;-2.260;2023-06-14T06:39:22;8.13;;;2.42;;
59306;SDS011;47983;53.016;-2.260;2023-06-14T06:41:50;6.13;;;1.85;;
59306;SDS011;47983;53.016;-2.260;2023-06-14T06:44:28;7.80;;;2.58;;
59306;SDS011;47983;53.016;-2.260;2023-06-14T06:46:57;5.00;;;2.35;;
59306;SDS011;47983;53.016;-2.260;2023-06-14T06:49:25;5.35;;;2.30;;
59306;SDS011;47983;53.016;-2.260;2023-06-14T06:52:00;10.68;;;3.03;;
59306;SDS011;47983;53.016;-2.260;2023-06-14T06:54:29;5.72;;;1.95;;
59306;SDS011;47983;53.016;-2.260;2023-06-14T06:56:57;5.20;;;1.92;;
59306;SDS011;47983;53.016;-2.260;2023-06-14T06:59:25;6.05;;;2.40;;
59306;SDS011;47983;53.016;-2.260;2023-06-14T07:01:53;5.50;;;2.20;;
59306;SDS011;47983;53.016;-2.260;2023-06-14T07:04:21;9.68;;;2.42;;
59306;SDS011;47983;53.016;-2.260;2023-06-14T07:06:48;4.05;;;2.08;;
59306;SDS011;47983;53.016;-2.260;2023-06-14T07:09:16;4.45;;;2.25;;
59306;SDS011;47983;53.016;-2.260;2023-06-14T07:11:45;5.85;;;2.20;;
59306;SDS011;47983;53.016;-2.260;2023-06-14T07:14:13;7.60;;;2.88;;
59306;SDS011;47983;53.016;-2.260;2023-06-14T07:16:42;7.13;;;2.47;;
59306;SDS011;47983;53.016;-2.260;2023-06-14T07:19:11;5.45;;;2.00;;
59306;SDS011;47983;53.016;-2.260;2023-06-14T07:21:39;12.07;;;2.22;;
59306;SDS011;47983;53.016;-2.260;2023-06-14T07:24:07;4.88;;;2.30;;
59306;SDS011;47983;53.016;-2.260;2023-06-14T07:26:36;10.77;;;2.63;;
59306;SDS011;47983;53.016;-2.260;2023-06-14T07:29:04;6.82;;;2.30;;
59306;SDS011;47983;53.016;-2.260;2023-06-14T07:31:34;5.85;;;2.13;;
59306;SDS011;47983;53.016;-2.260;2023-06-14T07:34:02;10.55;;;2.58;;
59306;SDS011;47983;53.016;-2.260;2023-06-14T07:36:30;5.35;;;2.38;;
59306;SDS011;47983;53.016;-2.260;2023-06-14T07:38:58;11.50;;;2.30;;
59306;SDS011;47983;53.016;-2.260;2023-06-14T07:41:26;10.25;;;2.25;;
59306;SDS011;47983;53.016;-2.260;2023-06-14T07:43:55;7.50;;;2.40;;
59306;SDS011;47983;53.016;-2.260;2023-06-14T07:46:23;5.38;;;2.30;;
59306;SDS011;47983;53.016;-2.260;2023-06-14T07:48:51;4.28;;;2.10;;
59306;SDS011;47983;53.016;-2.260;2023-06-14T07:51:19;4.47;;;2.17;;
59306;SDS011;47983;53.016;-2.260;2023-06-14T07:53:48;14.90;;;2.50;;
59306;SDS011;47983;53.016;-2.260;2023-06-14T07:56:16;4.35;;;2.60;;
59306;SDS011;47983;53.016;-2.260;2023-06-14T07:58:44;4.07;;;2.17;;
59306;SDS011;47983;53.016;-2.260;2023-06-14T08:01:12;6.13;;;2.50;;
59306;SDS011;47983;53.016;-2.260;2023-06-14T08:03:40;6.90;;;2.03;;
59306;SDS011;47983;53.016;-2.260;2023-06-14T08:06:08;5.43;;;1.92;;
59306;SDS011;47983;53.016;-2.260;2023-06-14T08:08:36;12.68;;;2.40;;
59306;SDS011;47983;53.016;-2.260;2023-06-14T08:11:04;7.20;;;2.20;;
59306;SDS011;47983;53.016;-2.260;2023-06-14T08:13:32;5.72;;;2.20;;
59306;SDS011;47983;53.016;-2.260;2023-06-14T08:16:00;3.38;;;2.10;;
59306;SDS011;47983;53.016;-2.260;2023-06-14T08:18:28;4.88;;;2.17;;
59306;SDS011;47983;53.016;-2.260;2023-06-14T08:20:57;8.80;;;2.00;;
59306;SDS011;47983;53.016;-2.260;2023-06-14T08:23:25;11.48;;;2.50;;
59306;SDS011;47983;53.016;-2.260;2023-06-14T08:25:53;10.63;;;2.63;;
59306;SDS011;47983;53.016;-2.260;2023-06-14T08:28:21;8.15;;;1.98;;
59306;SDS011;47983;53.016;-2.260;2023-06-14T08:30:48;3.78;;;1.98;;
59306;SDS011;47983;53.016;-2.260;2023-06-14T08:33:16;3.47;;;1.92;;
59306;SDS011;47983;53.016;-2.260;2023-06-14T08:35:44;7.55;;;2.45;;
59306;SDS011;47983;53.016;-2.260;2023-06-14T08:38:11;5.93;;;1.95;;
59306;SDS011;47983;53.016;-2.260;2023-06-14T08:40:39;7.00;;;2.38;;
59306;SDS011;47983;53.016;-2.260;2023-06-14T08:43:09;11.38;;;2.45;;
59306;SDS011;47983;53.016;-2.260;2023-06-14T08:45:37;9.80;;;2.40;;
59306;SDS011;47983;53.016;-2.260;2023-06-14T08:48:05;6.25;;;2.28;;
59306;SDS011;47983;53.016;-2.260;2023-06-14T08:50:34;6.45;;;2.33;;
59306;SDS011;47983;53.016;-2.260;2023-06-14T08:53:06;7.50;;;2.20;;
59306;SDS011;47983;53.016;-2.260;2023-06-14T08:55:37;9.60;;;2.38;;
59306;SDS011;47983;53.016;-2.260;2023-06-14T08:58:09;6.60;;;2.47;;
59306;SDS011;47983;53.016;-2.260;2023-06-14T09:00:41;7.25;;;2.75;;
59306;SDS011;47983;53.016;-2.260;2023-06-14T09:03:10;7.20;;;2.17;;
59306;SDS011;47983;53.016;-2.260;2023-06-14T09:05:42;9.68;;;2.65;;
59306;SDS011;47983;53.016;-2.260;2023-06-14T09:08:10;8.57;;;2.30;;
59306;SDS011;47983;53.016;-2.260;2023-06-14T09:10:39;8.95;;;2.55;;
59306;SDS011;47983;53.016;-2.260;2023-06-14T09:13:08;5.55;;;2.33;;
59306;SDS011;47983;53.016;-2.260;2023-06-14T09:15:36;9.02;;;3.35;;
59306;SDS011;47983;53.016;-2.260;2023-06-14T09:18:04;15.73;;;3.15;;
59306;SDS011;47983;53.016;-2.260;2023-06-14T09:20:33;7.28;;;2.55;;
59306;SDS011;47983;53.016;-2.260;2023-06-14T09:23:00;13.65;;;3.22;;
59306;SDS011;47983;53.016;-2.260;2023-06-14T09:25:29;12.20;;;2.63;;
59306;SDS011;47983;53.016;-2.260;2023-06-14T09:28:06;6.93;;;2.67;;
59306;SDS011;47983;53.016;-2.260;2023-06-14T09:30:36;7.03;;;2.65;;
59306;SDS011;47983;53.016;-2.260;2023-06-14T09:33:06;4.35;;;2.00;;
59306;SDS011;47983;53.016;-2.260;2023-06-14T09:35:34;6.03;;;2.63;;
59306;SDS011;47983;53.016;-2.260;2023-06-14T09:38:03;14.20;;;2.63;;
59306;SDS011;47983;53.016;-2.260;2023-06-14T09:40:33;9.57;;;2.42;;
59306;SDS011;47983;53.016;-2.260;2023-06-14T09:43:06;8.20;;;2.80;;
59306;SDS011;47983;53.016;-2.260;2023-06-14T09:45:40;8.57;;;2.78;;
59306;SDS011;47983;53.016;-2.260;2023-06-14T09:48:12;9.30;;;2.40;;
59306;SDS011;47983;53.016;-2.260;2023-06-14T09:50:45;7.88;;;2.35;;
59306;SDS011;47983;53.016;-2.260;2023-06-14T09:53:14;7.40;;;2.83;;
59306;SDS011;47983;53.016;-2.260;2023-06-14T09:55:44;9.07;;;2.90;;
59306;SDS011;47983;53.016;-2.260;2023-06-14T09:58:13;5.50;;;2.85;;
59306;SDS011;47983;53.016;-2.260;2023-06-14T10:00:42;6.72;;;2.53;;
59306;SDS011;47983;53.016;-2.260;2023-06-14T10:03:13;15.40;;;2.70;;
59306;SDS011;47983;53.016;-2.260;2023-06-14T10:05:45;12.27;;;2.65;;
59306;SDS011;47983;53.016;-2.260;2023-06-14T10:08:18;8.25;;;3.10;;
59306;SDS011;47983;53.016;-2.260;2023-06-14T10:10:51;7.05;;;2.95;;
59306;SDS011;47983;53.016;-2.260;2023-06-14T10:13:20;7.70;;;3.13;;
59306;SDS011;47983;53.016;-2.260;2023-06-14T10:19:06;6.10;;;2.83;;
59306;SDS011;47983;53.016;-2.260;2023-06-14T10:21:41;10.82;;;3.17;;
59306;SDS011;47983;53.016;-2.260;2023-06-14T10:24:16;8.10;;;2.92;;
59306;SDS011;47983;53.016;-2.260;2023-06-14T10:26:50;6.05;;;2.65;;
59306;SDS011;47983;53.016;-2.260;2023-06-14T10:29:19;7.05;;;3.13;;
59306;SDS011;47983;53.016;-2.260;2023-06-14T10:31:47;6.10;;;2.53;;
59306;SDS011;47983;53.016;-2.260;2023-06-14T10:34:25;12.63;;;2.95;;
59306;SDS011;47983;53.016;-2.260;2023-06-14T10:37:04;9.68;;;2.95;;
59306;SDS011;47983;53.016;-2.260;2023-06-14T10:39:38;8.13;;;3.13;;
59306;SDS011;47983;53.016;-2.260;2023-06-14T10:42:09;9.50;;;2.88;;
59306;SDS011;47983;53.016;-2.260;2023-06-14T10:44:38;7.28;;;2.83;;
59306;SDS011;47983;53.016;-2.260;2023-06-14T10:47:24;5.00;;;2.60;;
59306;SDS011;47983;53.016;-2.260;2023-06-14T10:52:32;6.95;;;2.63;;
59306;SDS011;47983;53.016;-2.260;2023-06-14T10:55:13;5.10;;;2.90;;
59306;SDS011;47983;53.016;-2.260;2023-06-14T10:57:46;9.02;;;3.13;;
59306;SDS011;47983;53.016;-2.260;2023-06-14T11:00:24;10.75;;;3.20;;
59306;SDS011;47983;53.016;-2.260;2023-06-14T11:05:57;10.55;;;2.88;;
59306;SDS011;47983;53.016;-2.260;2023-06-14T11:11:32;6.45;;;2.95;;
59306;SDS011;47983;53.016;-2.260;2023-06-14T11:14:03;8.27;;;3.30;;
59306;SDS011;47983;53.016;-2.260;2023-06-14T11:16:31;6.25;;;2.88;;
59306;SDS011;47983;53.016;-2.260;2023-06-14T11:19:00;5.95;;;3.08;;
59306;SDS011;47983;53.016;-2.260;2023-06-14T11:21:32;11.32;;;3.05;;
59306;SDS011;47983;53.016;-2.260;2023-06-14T11:24:00;6.40;;;2.65;;
59306;SDS011;47983;53.016;-2.260;2023-06-14T11:26:29;11.05;;;3.42;;
59306;SDS011;47983;53.016;-2.260;2023-06-14T11:28:58;3.90;;;2.30;;
59306;SDS011;47983;53.016;-2.260;2023-06-14T11:31:27;13.50;;;3.15;;
59306;SDS011;47983;53.016;-2.260;2023-06-14T11:33:57;5.68;;;2.65;;
59306;SDS011;47983;53.016;-2.260;2023-06-14T11:36:26;4.97;;;2.88;;
59306;SDS011;47983;53.016;-2.260;2023-06-14T11:38:59;4.35;;;2.40;;
59306;SDS011;47983;53.016;-2.260;2023-06-14T11:41:32;6.85;;;2.83;;
59306;SDS011;47983;53.016;-2.260;2023-06-14T11:44:03;5.78;;;2.92;;
59306;SDS011;47983;53.016;-2.260;2023-06-14T11:46:33;4.55;;;2.53;;
59306;SDS011;47983;53.016;-2.260;2023-06-14T11:49:02;4.20;;;2.60;;
59306;SDS011;47983;53.016;-2.260;2023-06-14T11:51:32;10.48;;;3.10;;
59306;SDS011;47983;53.016;-2.260;2023-06-14T11:54:04;7.27;;;2.90;;
59306;SDS011;47983;53.016;-2.260;2023-06-14T11:56:33;8.27;;;3.03;;
59306;SDS011;47983;53.016;-2.260;2023-06-14T11:59:02;8.27;;;2.45;;
59306;SDS011;47983;53.016;-2.260;2023-06-14T12:01:31;7.30;;;3.03;;
59306;SDS011;47983;53.016;-2.260;2023-06-14T12:03:59;5.45;;;2.80;;
59306;SDS011;47983;53.016;-2.260;2023-06-14T12:06:28;9.27;;;3.00;;
59306;SDS011;47983;53.016;-2.260;2023-06-14T12:09:04;9.50;;;2.92;;
59306;SDS011;47983;53.016;-2.260;2023-06-14T12:11:40;9.23;;;3.20;;
59306;SDS011;47983;53.016;-2.260;2023-06-14T12:14:08;4.85;;;3.00;;
59306;SDS011;47983;53.016;-2.260;2023-06-14T12:16:38;3.10;;;2.33;;
59306;SDS011;47983;53.016;-2.260;2023-06-14T12:19:16;9.75;;;2.88;;
59306;SDS011;47983;53.016;-2.260;2023-06-14T12:21:47;9.18;;;2.83;;
59306;SDS011;47983;53.016;-2.260;2023-06-14T12:24:16;7.82;;;2.78;;
59306;SDS011;47983;53.016;-2.260;2023-06-14T12:26:44;11.27;;;3.00;;
59306;SDS011;47983;53.016;-2.260;2023-06-14T12:29:12;15.60;;;3.05;;
59306;SDS011;47983;53.016;-2.260;2023-06-14T12:31:40;10.32;;;3.35;;
59306;SDS011;47983;53.016;-2.260;2023-06-14T12:34:09;8.15;;;3.10;;
59306;SDS011;47983;53.016;-2.260;2023-06-14T12:36:37;4.60;;;2.95;;
59306;SDS011;47983;53.016;-2.260;2023-06-14T12:39:09;7.53;;;3.13;;
59306;SDS011;47983;53.016;-2.260;2023-06-14T12:41:37;6.78;;;2.90;;
59306;SDS011;47983;53.016;-2.260;2023-06-14T12:44:05;5.35;;;2.83;;
59306;SDS011;47983;53.016;-2.260;2023-06-14T12:46:33;5.35;;;2.65;;
59306;SDS011;47983;53.016;-2.260;2023-06-14T12:49:02;6.03;;;3.58;;
59306;SDS011;47983;53.016;-2.260;2023-06-14T12:51:29;5.22;;;3.20;;
59306;SDS011;47983;53.016;-2.260;2023-06-14T12:53:57;6.45;;;2.58;;
59306;SDS011;47983;53.016;-2.260;2023-06-14T12:56:25;7.55;;;2.78;;
59306;SDS011;47983;53.016;-2.260;2023-06-14T12:58:53;5.68;;;3.13;;
59306;SDS011;47983;53.016;-2.260;2023-06-14T13:01:21;6.93;;;2.97;;
59306;SDS011;47983;53.016;-2.260;2023-06-14T13:03:49;6.47;;;2.97;;
59306;SDS011;47983;53.016;-2.260;2023-06-14T13:06:20;11.38;;;3.08;;
59306;SDS011;47983;53.016;-2.260;2023-06-14T13:08:49;5.03;;;3.20;;
59306;SDS011;47983;53.016;-2.260;2023-06-14T13:11:17;5.45;;;2.97;;
59306;SDS011;47983;53.016;-2.260;2023-06-14T13:13:44;6.70;;;3.15;;
59306;SDS011;47983;53.016;-2.260;2023-06-14T13:16:12;7.25;;;3.20;;
59306;SDS011;47983;53.016;-2.260;2023-06-14T13:18:41;7.43;;;2.83;;
59306;SDS011;47983;53.016;-2.260;2023-06-14T13:21:09;4.95;;;3.00;;
59306;SDS011;47983;53.016;-2.260;2023-06-14T13:23:37;9.88;;;3.05;;
59306;SDS011;47983;53.016;-2.260;2023-06-14T13:26:05;7.50;;;3.03;;
59306;SDS011;47983;53.016;-2.260;2023-06-14T13:28:32;8.07;;;3.30;;
59306;SDS011;47983;53.016;-2.260;2023-06-14T13:31:02;6.32;;;3.13;;
59306;SDS011;47983;53.016;-2.260;2023-06-14T13:33:31;6.72;;;2.97;;
59306;SDS011;47983;53.016;-2.260;2023-06-14T13:35:59;12.57;;;2.78;;
59306;SDS011;47983;53.016;-2.260;2023-06-14T13:38:27;13.52;;;2.92;;
59306;SDS011;47983;53.016;-2.260;2023-06-14T13:40:55;16.83;;;2.72;;
59306;SDS011;47983;53.016;-2.260;2023-06-14T13:43:23;6.35;;;2.80;;
59306;SDS011;47983;53.016;-2.260;2023-06-14T13:45:50;7.88;;;3.05;;
59306;SDS011;47983;53.016;-2.260;2023-06-14T13:48:18;3.03;;;2.70;;
59306;SDS011;47983;53.016;-2.260;2023-06-14T13:50:46;6.18;;;3.13;;
59306;SDS011;47983;53.016;-2.260;2023-06-14T13:53:14;7.95;;;2.65;;
59306;SDS011;47983;53.016;-2.260;2023-06-14T13:55:42;6.88;;;2.38;;
59306;SDS011;47983;53.016;-2.260;2023-06-14T13:58:10;6.45;;;3.05;;
59306;SDS011;47983;53.016;-2.260;2023-06-14T14:00:38;10.98;;;3.42;;
59306;SDS011;47983;53.016;-2.260;2023-06-14T14:03:07;13.27;;;2.92;;
59306;SDS011;47983;53.016;-2.260;2023-06-14T14:05:36;8.18;;;3.03;;
59306;SDS011;47983;53.016;-2.260;2023-06-14T14:08:04;7.75;;;2.63;;
59306;SDS011;47983;53.016;-2.260;2023-06-14T14:10:32;5.10;;;2.70;;
59306;SDS011;47983;53.016;-2.260;2023-06-14T14:13:00;6.85;;;3.15;;
59306;SDS011;47983;53.016;-2.260;2023-06-14T14:15:28;7.47;;;2.35;;
59306;SDS011;47983;53.016;-2.260;2023-06-14T14:17:56;11.13;;;2.80;;
59306;SDS011;47983;53.016;-2.260;2023-06-14T14:20:24;6.40;;;2.67;;
59306;SDS011;47983;53.016;-2.260;2023-06-14T14:22:53;4.88;;;2.50;;
59306;SDS011;47983;53.016;-2.260;2023-06-14T14:25:20;7.32;;;2.80;;
59306;SDS011;47983;53.016;-2.260;2023-06-14T14:27:48;8.43;;;3.03;;
59306;SDS011;47983;53.016;-2.260;2023-06-14T14:30:16;4.82;;;2.88;;
59306;SDS011;47983;53.016;-2.260;2023-06-14T14:32:45;6.40;;;2.90;;
59306;SDS011;47983;53.016;-2.260;2023-06-14T14:35:15;6.80;;;3.20;;
59306;SDS011;47983;53.016;-2.260;2023-06-14T14:37:44;5.18;;;2.35;;
59306;SDS011;47983;53.016;-2.260;2023-06-14T14:40:12;7.72;;;2.92;;
59306;SDS011;47983;53.016;-2.260;2023-06-14T14:42:40;4.60;;;2.85;;
59306;SDS011;47983;53.016;-2.260;2023-06-14T14:45:08;7.57;;;2.72;;
59306;SDS011;47983;53.016;-2.260;2023-06-14T14:47:36;7.25;;;2.72;;
59306;SDS011;47983;53.016;-2.260;2023-06-14T14:50:04;6.43;;;2.80;;
59306;SDS011;47983;53.016;-2.260;2023-06-14T14:52:35;5.13;;;2.90;;
59306;SDS011;47983;53.016;-2.260;2023-06-14T14:55:03;7.25;;;2.90;;
59306;SDS011;47983;53.016;-2.260;2023-06-14T14:57:31;5.07;;;2.50;;
59306;SDS011;47983;53.016;-2.260;2023-06-14T14:59:59;8.98;;;3.03;;
59306;SDS011;47983;53.016;-2.260;2023-06-14T15:02:27;6.55;;;2.55;;